Time;durP1;ratioP1;P1;durP2;ratioP2;P2;SDS_P1;SDS_P2;PMS_P1;PMS_P2;Temp;Humidity;BMP_temperature;BMP_pressure;BME280_temperature;BME280_humidity;BME280_pressure;Samples;Min_cycle;Max_cycle;Signal;HPM_P1;HPM_P2
2021/07/27 00:01:12;;;;;;;4.68;2.30;;;;;;;;;;5009534;28;20030;-83
2021/07/27 00:03:38;;;;;;;3.58;2.30;;;;;;;;;;5005902;28;20033;-81
2021/07/27 00:06:04;;;;;;;4.28;2.38;;;;;;;;;;5001278;28;20061;-81
2021/07/27 00:08:29;;;;;;;3.40;2.22;;;;;;;;;;4984491;28;20053;-81
2021/07/27 00:10:55;;;;;;;6.30;2.63;;;;;;;;;;4991103;28;20030;-81
2021/07/27 00:13:20;;;;;;;4.72;2.50;;;;;;;;;;5013888;28;20286;-81
2021/07/27 00:15:45;;;;;;;3.70;2.22;;;;;;;;;;4981408;28;20082;-82
2021/07/27 00:18:11;;;;;;;4.55;2.40;;;;;;;;;;4963272;28;20491;-82
2021/07/27 00:20:36;;;;;;;3.47;2.20;;;;;;;;;;4967029;28;20570;-82
2021/07/27 00:23:02;;;;;;;3.67;2.20;;;;;;;;;;4979145;28;20498;-81
2021/07/27 00:25:27;;;;;;;4.25;2.38;;;;;;;;;;5002962;28;20057;-81
2021/07/27 00:27:52;;;;;;;4.60;2.50;;;;;;;;;;4987141;28;20034;-82
2021/07/27 00:30:18;;;;;;;3.17;2.00;;;;;;;;;;4967279;28;20030;-82
2021/07/27 00:32:43;;;;;;;3.63;2.28;;;;;;;;;;4981777;28;20092;-81
2021/07/27 00:35:10;;;;;;;3.67;1.95;;;;;;;;;;4987104;28;20042;-81
2021/07/27 00:37:37;;;;;;;6.37;2.20;;;;;;;;;;4984831;28;20073;-82
2021/07/27 00:40:03;;;;;;;3.40;2.35;;;;;;;;;;4966674;28;20038;-81
2021/07/27 00:42:30;;;;;;;4.57;2.20;;;;;;;;;;4993913;28;20026;-81
2021/07/27 00:44:56;;;;;;;3.80;1.92;;;;;;;;;;5003552;28;20617;-81
2021/07/27 00:47:21;;;;;;;4.18;2.22;;;;;;;;;;4979803;28;20038;-82
2021/07/27 00:49:47;;;;;;;3.05;1.85;;;;;;;;;;4994483;28;20038;-81
2021/07/27 00:52:12;;;;;;;4.43;2.42;;;;;;;;;;4969332;28;20033;-81
2021/07/27 00:54:38;;;;;;;3.80;2.20;;;;;;;;;;4984615;28;20030;-81
2021/07/27 00:57:03;;;;;;;3.65;2.08;;;;;;;;;;4982173;28;20034;-82
2021/07/27 00:59:29;;;;;;;6.55;2.28;;;;;;;;;;4982389;28;20759;-81
2021/07/27 01:01:54;;;;;;;3.42;2.20;;;;;;;;;;4980649;28;20033;-81
2021/07/27 01:04:20;;;;;;;3.70;2.17;;;;;;;;;;4982886;28;20033;-81
2021/07/27 01:06:45;;;;;;;5.68;2.35;;;;;;;;;;4998293;28;20050;-82
2021/07/27 01:09:11;;;;;;;3.63;2.30;;;;;;;;;;4975028;28;20033;-81
2021/07/27 01:11:41;;;;;;;3.80;2.20;;;;;;;;;;4981130;28;20036;-81
2021/07/27 01:14:06;;;;;;;5.07;2.40;;;;;;;;;;5002333;28;20034;-81
2021/07/27 01:16:34;;;;;;;5.03;2.38;;;;;;;;;;4969064;28;20558;-81
2021/07/27 01:38:07;;;;;;;3.55;2.30;;;;;;;;;;4968945;28;20053;-81
2021/07/27 01:40:40;;;;;;;4.60;2.50;;;;;;;;;;4983732;28;20467;-82
2021/07/27 01:43:09;;;;;;;3.70;2.40;;;;;;;;;;4981991;28;20022;-82
2021/07/27 01:45:34;;;;;;;3.80;2.47;;;;;;;;;;4956427;28;20026;-82
2021/07/27 01:47:59;;;;;;;4.75;2.60;;;;;;;;;;4976139;28;20018;-82
2021/07/27 01:50:26;;;;;;;3.70;2.50;;;;;;;;;;5000334;28;20487;-82
2021/07/27 01:52:58;;;;;;;4.27;2.43;;;;;;;;;;4970684;28;20038;-82
2021/07/27 01:55:23;;;;;;;6.47;2.67;;;;;;;;;;4981048;28;21034;-82
2021/07/27 01:57:49;;;;;;;6.18;2.67;;;;;;;;;;4982807;28;20737;-82
2021/07/27 02:00:14;;;;;;;6.15;2.33;;;;;;;;;;4984444;28;20026;-82
2021/07/27 02:02:40;;;;;;;5.93;2.80;;;;;;;;;;4967948;28;20473;-82
2021/07/27 02:05:07;;;;;;;3.45;2.35;;;;;;;;;;4985300;28;20022;-82
2021/07/27 02:07:35;;;;;;;5.57;2.50;;;;;;;;;;4981715;28;20034;-82
2021/07/27 02:10:05;;;;;;;4.18;2.22;;;;;;;;;;4993483;28;20035;-81
2021/07/27 02:12:37;;;;;;;4.47;2.40;;;;;;;;;;4976108;28;20038;-81
2021/07/27 02:15:06;;;;;;;4.05;2.47;;;;;;;;;;5003172;28;20025;-82
2021/07/27 02:17:32;;;;;;;5.85;2.58;;;;;;;;;;5003562;28;20069;-81
2021/07/27 02:19:58;;;;;;;3.80;2.40;;;;;;;;;;4985384;28;20116;-81
2021/07/27 02:22:24;;;;;;;4.55;2.40;;;;;;;;;;4997190;28;20502;-81
2021/07/27 02:24:49;;;;;;;5.95;2.97;;;;;;;;;;4967198;28;20030;-81
2021/07/27 02:27:15;;;;;;;7.45;2.90;;;;;;;;;;4960986;28;20042;-81
2021/07/27 02:29:40;;;;;;;6.40;2.88;;;;;;;;;;4981449;28;20042;-81
2021/07/27 02:32:05;;;;;;;7.75;2.60;;;;;;;;;;4965828;28;20088;-81
2021/07/27 02:34:32;;;;;;;4.88;2.75;;;;;;;;;;4965325;28;20049;-82
2021/07/27 02:36:58;;;;;;;6.50;2.67;;;;;;;;;;4979156;28;20044;-80
2021/07/27 02:39:23;;;;;;;6.88;2.78;;;;;;;;;;4968618;28;20038;-81
2021/07/27 02:41:49;;;;;;;6.47;2.88;;;;;;;;;;4965064;28;20041;-81
2021/07/27 02:44:14;;;;;;;5.35;2.55;;;;;;;;;;4983685;28;20180;-81
2021/07/27 02:46:39;;;;;;;6.85;3.15;;;;;;;;;;4967564;28;20034;-81
2021/07/27 02:49:05;;;;;;;6.47;3.05;;;;;;;;;;4990634;28;20100;-81
2021/07/27 02:51:30;;;;;;;5.05;2.50;;;;;;;;;;5001711;28;20063;-81
2021/07/27 02:53:56;;;;;;;4.32;2.70;;;;;;;;;;4968683;28;20034;-81
2021/07/27 02:56:21;;;;;;;4.82;2.58;;;;;;;;;;4962774;28;20507;-82
2021/07/27 02:58:46;;;;;;;3.95;2.50;;;;;;;;;;4978131;28;20482;-81
2021/07/27 03:01:12;;;;;;;5.68;3.00;;;;;;;;;;4984321;28;20057;-82
2021/07/27 03:03:37;;;;;;;9.18;3.10;;;;;;;;;;4996417;28;20065;-82
2021/07/27 03:06:03;;;;;;;4.78;2.40;;;;;;;;;;4978817;28;20089;-82
2021/07/27 03:09:14;;;;;;;4.05;2.63;;;;;;;;;;4964854;28;20071;-82
2021/07/27 03:11:21;;;;;;;3.70;2.50;;;;;;;;;;4976279;28;20132;-81
2021/07/27 03:13:46;;;;;;;5.88;2.65;;;;;;;;;;4999474;28;20111;-82
2021/07/27 03:16:19;;;;;;;4.57;2.80;;;;;;;;;;4959283;28;20645;-82
2021/07/27 03:18:45;;;;;;;5.70;3.10;;;;;;;;;;4984002;28;20080;-81
2021/07/27 03:21:20;;;;;;;4.03;2.70;;;;;;;;;;4969556;28;20046;-82
2021/07/27 03:23:46;;;;;;;5.90;3.28;;;;;;;;;;4996619;28;20026;-82
2021/07/27 03:26:11;;;;;;;4.68;3.00;;;;;;;;;;4982239;28;20368;-82
2021/07/27 03:28:37;;;;;;;5.18;3.10;;;;;;;;;;4997278;28;20034;-82
2021/07/27 03:31:02;;;;;;;6.28;2.70;;;;;;;;;;4978269;28;20033;-81
2021/07/27 03:33:28;;;;;;;5.97;2.90;;;;;;;;;;4980166;28;20037;-82
2021/07/27 03:35:53;;;;;;;5.78;3.00;;;;;;;;;;4999508;28;20038;-82
2021/07/27 03:38:19;;;;;;;6.55;3.13;;;;;;;;;;4968919;28;20140;-82
2021/07/27 03:40:44;;;;;;;7.53;2.88;;;;;;;;;;4982409;28;20061;-81
2021/07/27 03:43:09;;;;;;;6.20;3.40;;;;;;;;;;4986106;28;20057;-81
2021/07/27 03:45:34;;;;;;;5.15;2.90;;;;;;;;;;4983370;28;20422;-82
2021/07/27 03:48:00;;;;;;;5.25;2.83;;;;;;;;;;5001832;28;20378;-81
2021/07/27 03:50:26;;;;;;;4.03;2.80;;;;;;;;;;4984618;28;20061;-81
2021/07/27 03:52:51;;;;;;;6.88;2.80;;;;;;;;;;5008329;28;20266;-81
2021/07/27 03:55:16;;;;;;;6.15;2.83;;;;;;;;;;4984892;28;20026;-81
2021/07/27 03:57:42;;;;;;;5.20;3.05;;;;;;;;;;4982831;28;20848;-81
2021/07/27 04:00:07;;;;;;;4.82;2.70;;;;;;;;;;4988206;28;20466;-81
2021/07/27 04:02:33;;;;;;;4.22;2.83;;;;;;;;;;4988385;28;20053;-81
2021/07/27 04:04:58;;;;;;;4.00;2.70;;;;;;;;;;4984515;28;20025;-80
2021/07/27 04:07:23;;;;;;;4.82;2.97;;;;;;;;;;4985331;28;20143;-81
2021/07/27 04:09:49;;;;;;;6.43;3.25;;;;;;;;;;4991032;28;20053;-81
2021/07/27 04:12:14;;;;;;;4.97;3.38;;;;;;;;;;4995076;28;20027;-82
2021/07/27 04:14:40;;;;;;;5.82;3.20;;;;;;;;;;5020326;28;20045;-81
2021/07/27 04:17:05;;;;;;;7.25;3.30;;;;;;;;;;4986952;28;20550;-81
2021/07/27 04:19:30;;;;;;;9.13;3.15;;;;;;;;;;5001283;28;20034;-81
2021/07/27 04:21:56;;;;;;;5.57;3.00;;;;;;;;;;4969273;28;20072;-81
2021/07/27 04:24:21;;;;;;;4.68;3.08;;;;;;;;;;5004546;28;20033;-82
2021/07/27 04:26:47;;;;;;;6.13;3.25;;;;;;;;;;4987563;28;20036;-82
2021/07/27 04:29:16;;;;;;;4.95;2.80;;;;;;;;;;5007933;28;20132;-82
2021/07/27 04:31:41;;;;;;;5.65;2.70;;;;;;;;;;5003615;28;20091;-82
2021/07/27 04:34:06;;;;;;;4.13;2.38;;;;;;;;;;4991907;28;20303;-83
2021/07/27 04:36:32;;;;;;;6.78;2.95;;;;;;;;;;4969843;28;20029;-82
2021/07/27 04:38:57;;;;;;;6.55;3.60;;;;;;;;;;4974062;28;20037;-81
2021/07/27 04:41:22;;;;;;;5.50;2.92;;;;;;;;;;4990294;28;20576;-82
2021/07/27 04:43:48;;;;;;;4.07;2.40;;;;;;;;;;4990171;28;20132;-82
2021/07/27 04:46:13;;;;;;;3.63;2.50;;;;;;;;;;4971785;28;20038;-82
2021/07/27 04:48:39;;;;;;;4.53;2.30;;;;;;;;;;4984052;28;20030;-80
2021/07/27 04:51:05;;;;;;;4.88;2.45;;;;;;;;;;4997631;28;20041;-82
2021/07/27 04:53:33;;;;;;;5.05;2.45;;;;;;;;;;4992678;28;20026;-81
2021/07/27 04:56:00;;;;;;;4.57;2.70;;;;;;;;;;4981062;28;20030;-81
2021/07/27 04:58:25;;;;;;;4.93;3.25;;;;;;;;;;5001226;28;20108;-82
2021/07/27 05:00:51;;;;;;;4.78;3.00;;;;;;;;;;4967361;28;20105;-82
2021/07/27 05:03:18;;;;;;;6.15;2.90;;;;;;;;;;4994084;28;20129;-81
2021/07/27 05:05:44;;;;;;;5.65;2.72;;;;;;;;;;4963789;28;20739;-82
2021/07/27 05:08:09;;;;;;;6.15;2.90;;;;;;;;;;4964838;28;20593;-81
2021/07/27 05:10:34;;;;;;;5.05;2.80;;;;;;;;;;4975482;28;20038;-81
2021/07/27 05:13:00;;;;;;;8.52;2.97;;;;;;;;;;4975357;28;20038;-81
2021/07/27 05:15:25;;;;;;;5.82;3.50;;;;;;;;;;4985356;28;20038;-81
2021/07/27 05:18:00;;;;;;;8.20;3.42;;;;;;;;;;4997948;28;20455;-81
2021/07/27 05:20:27;;;;;;;7.82;3.17;;;;;;;;;;4998712;28;20560;-81
2021/07/27 05:24:23;;;;;;;4.53;2.70;;;;;;;;;;5040813;27;20451;-73
2021/07/27 05:26:48;;;;;;;4.63;2.88;;;;;;;;;;5029400;28;20029;-71
2021/07/27 05:29:17;;;;;;;6.47;3.20;;;;;;;;;;5011785;28;20041;-72
2021/07/27 05:31:42;;;;;;;4.82;2.78;;;;;;;;;;5035581;28;20030;-72
2021/07/27 05:34:08;;;;;;;4.40;2.75;;;;;;;;;;5031446;28;20044;-73
2021/07/27 05:36:34;;;;;;;4.30;2.90;;;;;;;;;;5027561;28;20026;-72
2021/07/27 05:38:59;;;;;;;4.68;3.10;;;;;;;;;;5031588;28;20486;-73
2021/07/27 05:41:25;;;;;;;6.57;3.42;;;;;;;;;;5024418;28;20052;-75
2021/07/27 05:43:51;;;;;;;4.45;2.90;;;;;;;;;;5012658;28;20042;-68
2021/07/27 05:46:16;;;;;;;6.25;2.95;;;;;;;;;;5025835;28;20029;-69
2021/07/27 05:48:46;;;;;;;5.07;3.28;;;;;;;;;;5029539;28;20029;-70
2021/07/27 05:51:13;;;;;;;6.53;3.17;;;;;;;;;;5025794;28;20103;-69
2021/07/27 05:53:39;;;;;;;4.97;3.00;;;;;;;;;;5015445;28;20064;-71
2021/07/27 05:56:05;;;;;;;4.22;2.95;;;;;;;;;;5012586;28;20125;-69
2021/07/27 05:58:30;;;;;;;5.10;3.00;;;;;;;;;;5027596;28;20100;-69
2021/07/27 06:00:58;;;;;;;4.90;3.38;;;;;;;;;;4993990;28;20030;-70
2021/07/27 06:03:23;;;;;;;4.50;3.20;;;;;;;;;;5028641;28;20038;-69
2021/07/27 06:05:52;;;;;;;4.65;2.80;;;;;;;;;;5012335;28;20040;-68
2021/07/27 06:08:17;;;;;;;5.40;3.13;;;;;;;;;;5029732;28;20037;-69
2021/07/27 06:10:42;;;;;;;5.15;3.22;;;;;;;;;;5004607;28;20034;-69
2021/07/27 06:13:08;;;;;;;6.95;3.33;;;;;;;;;;5026524;28;20061;-69
2021/07/27 06:15:33;;;;;;;5.95;2.95;;;;;;;;;;5012897;28;20466;-70
2021/07/27 06:17:59;;;;;;;5.63;3.05;;;;;;;;;;5014184;28;20029;-70
2021/07/27 06:20:25;;;;;;;6.97;3.50;;;;;;;;;;5026497;28;20129;-70
2021/07/27 06:22:50;;;;;;;4.93;3.22;;;;;;;;;;5027749;28;20123;-70
2021/07/27 06:25:15;;;;;;;5.53;3.13;;;;;;;;;;5030999;28;20030;-69
2021/07/27 06:27:41;;;;;;;3.92;2.70;;;;;;;;;;5007892;28;20112;-69
2021/07/27 06:30:09;;;;;;;5.65;2.70;;;;;;;;;;5007840;28;20034;-71
2021/07/27 06:32:34;;;;;;;5.32;3.17;;;;;;;;;;5011674;28;20033;-72
2021/07/27 06:35:00;;;;;;;6.78;3.40;;;;;;;;;;5000279;28;20029;-71
2021/07/27 06:37:25;;;;;;;5.43;2.90;;;;;;;;;;5013449;28;20029;-72
2021/07/27 06:39:53;;;;;;;5.50;2.95;;;;;;;;;;4979402;28;20009;-72
2021/07/27 06:42:18;;;;;;;6.05;3.53;;;;;;;;;;5013167;28;20034;-71
2021/07/27 06:44:44;;;;;;;7.28;3.13;;;;;;;;;;5004033;28;20112;-71
2021/07/27 06:47:09;;;;;;;6.90;2.90;;;;;;;;;;4994280;28;20038;-71
2021/07/27 06:49:35;;;;;;;5.50;3.45;;;;;;;;;;4994159;28;20030;-72
2021/07/27 06:52:00;;;;;;;6.00;3.03;;;;;;;;;;5013714;28;20451;-72
2021/07/27 06:54:25;;;;;;;3.92;2.70;;;;;;;;;;5012640;28;20022;-72
2021/07/27 06:56:54;;;;;;;6.30;3.33;;;;;;;;;;5012129;28;20076;-75
2021/07/27 06:59:20;;;;;;;4.22;2.90;;;;;;;;;;4974754;28;20037;-74
2021/07/27 07:01:45;;;;;;;4.10;2.80;;;;;;;;;;5002460;28;20036;-74
2021/07/27 07:04:10;;;;;;;9.20;3.50;;;;;;;;;;5009179;28;20033;-74
2021/07/27 07:06:36;;;;;;;6.30;3.20;;;;;;;;;;5020587;28;20030;-75
2021/07/27 07:09:01;;;;;;;5.75;3.15;;;;;;;;;;5020833;28;20522;-74
2021/07/27 07:11:27;;;;;;;3.70;2.55;;;;;;;;;;5019348;28;20033;-73
2021/07/27 07:13:53;;;;;;;3.90;2.70;;;;;;;;;;5024223;28;20966;-73
2021/07/27 07:16:18;;;;;;;6.47;3.10;;;;;;;;;;5022378;28;20117;-74
2021/07/27 07:18:44;;;;;;;4.68;3.10;;;;;;;;;;5019246;28;20053;-77
2021/07/27 07:21:09;;;;;;;6.25;3.13;;;;;;;;;;4998858;28;20041;-73
2021/07/27 07:23:34;;;;;;;6.35;3.30;;;;;;;;;;5018698;28;20065;-74
2021/07/27 07:26:02;;;;;;;7.07;3.03;;;;;;;;;;5021062;28;20387;-73
2021/07/27 07:28:27;;;;;;;6.90;3.47;;;;;;;;;;5003672;28;20026;-74
2021/07/27 07:30:53;;;;;;;4.55;3.25;;;;;;;;;;5019568;28;20025;-72
2021/07/27 07:33:20;;;;;;;5.15;2.90;;;;;;;;;;4987243;28;20029;-72
2021/07/27 07:35:48;;;;;;;4.90;2.97;;;;;;;;;;5004541;28;20309;-73
2021/07/27 07:38:16;;;;;;;5.53;3.00;;;;;;;;;;5001154;28;20041;-72
2021/07/27 07:40:41;;;;;;;6.45;3.30;;;;;;;;;;5002064;28;20034;-73
2021/07/27 07:43:07;;;;;;;4.93;3.00;;;;;;;;;;5017819;28;20044;-72
2021/07/27 07:45:33;;;;;;;4.55;3.00;;;;;;;;;;4986137;28;20069;-72
2021/07/27 07:47:58;;;;;;;7.15;2.88;;;;;;;;;;4983144;28;20540;-74
2021/07/27 07:50:23;;;;;;;4.65;2.80;;;;;;;;;;5020901;28;20405;-72
2021/07/27 07:52:58;;;;;;;4.68;2.90;;;;;;;;;;5018095;28;20038;-72
2021/07/27 07:55:23;;;;;;;4.65;3.10;;;;;;;;;;5018972;28;20041;-74
2021/07/27 07:57:49;;;;;;;5.18;2.97;;;;;;;;;;5018763;28;20029;-74
2021/07/27 08:00:15;;;;;;;4.78;2.83;;;;;;;;;;5014308;28;20033;-73
2021/07/27 08:02:41;;;;;;;4.75;3.20;;;;;;;;;;5019735;28;20052;-72
2021/07/27 08:05:06;;;;;;;5.00;3.40;;;;;;;;;;5000443;28;20083;-71
2021/07/27 08:07:34;;;;;;;5.65;3.13;;;;;;;;;;5000284;28;20083;-72
2021/07/27 08:10:00;;;;;;;5.55;3.42;;;;;;;;;;4993274;28;20044;-73
2021/07/27 08:12:27;;;;;;;5.95;3.45;;;;;;;;;;5019294;28;20026;-72
2021/07/27 08:14:52;;;;;;;6.40;3.05;;;;;;;;;;4977122;28;20370;-73
2021/07/27 08:17:18;;;;;;;5.78;3.22;;;;;;;;;;5021179;28;20482;-71
2021/07/27 08:19:43;;;;;;;4.63;3.00;;;;;;;;;;4997572;28;20034;-71
2021/07/27 08:22:11;;;;;;;5.85;3.42;;;;;;;;;;4982047;28;20132;-72
2021/07/27 08:24:36;;;;;;;4.63;3.17;;;;;;;;;;5012275;28;20584;-72
2021/07/27 08:27:07;;;;;;;4.75;3.25;;;;;;;;;;5015709;28;20034;-71
2021/07/27 08:29:37;;;;;;;5.60;3.60;;;;;;;;;;5001538;28;20033;-73
2021/07/27 08:32:09;;;;;;;5.80;3.00;;;;;;;;;;5016239;28;20030;-72
2021/07/27 08:34:37;;;;;;;7.45;3.33;;;;;;;;;;5014717;28;20117;-72
2021/07/27 08:37:04;;;;;;;5.15;3.20;;;;;;;;;;5018733;28;20026;-72
2021/07/27 08:39:29;;;;;;;6.43;3.58;;;;;;;;;;5002473;28;20429;-72
2021/07/27 08:41:58;;;;;;;5.55;3.53;;;;;;;;;;5017999;28;20048;-71
2021/07/27 08:44:25;;;;;;;5.28;3.47;;;;;;;;;;4994875;28;20080;-72
2021/07/27 08:46:50;;;;;;;6.35;3.47;;;;;;;;;;5012771;28;20033;-72
2021/07/27 08:49:16;;;;;;;5.43;3.55;;;;;;;;;;5009939;28;20032;-73
2021/07/27 08:51:44;;;;;;;5.10;3.50;;;;;;;;;;5017610;28;20033;-72
2021/07/27 08:54:09;;;;;;;5.80;3.60;;;;;;;;;;5017711;28;20056;-73
2021/07/27 08:56:43;;;;;;;4.82;3.53;;;;;;;;;;5019290;28;20417;-71
2021/07/27 08:59:08;;;;;;;5.60;3.40;;;;;;;;;;5019365;28;20033;-71
2021/07/27 09:01:36;;;;;;;6.80;3.80;;;;;;;;;;4999681;28;20056;-71
2021/07/27 09:04:01;;;;;;;5.25;3.70;;;;;;;;;;4998870;28;20045;-74
2021/07/27 09:06:27;;;;;;;6.63;3.90;;;;;;;;;;4989792;28;20041;-73
2021/07/27 09:09:11;;;;;;;5.55;3.17;;;;;;;;;;5002599;28;20073;-72
2021/07/27 09:11:47;;;;;;;5.68;3.55;;;;;;;;;;5010149;28;20542;-72
2021/07/27 09:14:14;;;;;;;6.68;3.63;;;;;;;;;;4988959;28;20038;-72
2021/07/27 09:16:39;;;;;;;;;;;;;;;;;;4996533;28;20025;-73
2021/07/27 09:19:04;;;;;;;5.23;3.50;;;;;;;;;;4996440;28;20317;-72
2021/07/27 09:21:32;;;;;;;6.00;3.40;;;;;;;;;;5004443;28;20461;-72
2021/07/27 09:23:57;;;;;;;5.93;3.78;;;;;;;;;;5010694;28;20091;-72
2021/07/27 09:26:23;;;;;;;4.83;3.30;;;;;;;;;;5005399;28;20029;-72
2021/07/27 09:28:48;;;;;;;6.00;3.70;;;;;;;;;;5009937;28;20021;-72
2021/07/27 09:31:14;;;;;;;6.73;3.60;;;;;;;;;;4997661;28;20113;-73
2021/07/27 09:33:39;;;;;;;4.30;3.13;;;;;;;;;;5007362;28;20033;-72
2021/07/27 09:36:05;;;;;;;4.90;3.47;;;;;;;;;;5009403;28;20041;-72
2021/07/27 09:38:33;;;;;;;6.00;3.57;;;;;;;;;;5014759;28;20026;-73
2021/07/27 09:41:00;;;;;;;6.32;3.60;;;;;;;;;;5011326;28;20035;-72
2021/07/27 09:43:26;;;;;;;5.20;3.30;;;;;;;;;;5002852;28;20042;-73
2021/07/27 09:46:00;;;;;;;6.40;3.30;;;;;;;;;;5013747;28;20538;-72
2021/07/27 09:48:26;;;;;;;5.47;3.28;;;;;;;;;;4996776;28;20044;-72
2021/07/27 09:50:52;;;;;;;4.77;3.20;;;;;;;;;;5007729;28;20025;-73
2021/07/27 09:53:17;;;;;;;4.97;3.23;;;;;;;;;;4992617;28;20046;-71
2021/07/27 09:55:43;;;;;;;4.40;2.90;;;;;;;;;;4994161;28;20490;-71
2021/07/27 09:58:08;;;;;;;5.67;3.20;;;;;;;;;;4994295;28;20045;-72
2021/07/27 10:00:40;;;;;;;5.40;3.30;;;;;;;;;;5013818;28;20064;-72
2021/07/27 10:03:10;;;;;;;5.47;3.22;;;;;;;;;;5011213;28;20094;-72
2021/07/27 10:05:35;;;;;;;6.40;2.90;;;;;;;;;;4996164;28;20029;-72
2021/07/27 10:08:01;;;;;;;5.33;3.47;;;;;;;;;;5006064;28;20045;-73
2021/07/27 10:10:37;;;;;;;4.17;3.07;;;;;;;;;;5013783;28;20029;-72
2021/07/27 10:13:21;;;;;;;5.07;3.03;;;;;;;;;;5018929;28;20037;-72
2021/07/27 10:15:47;;;;;;;4.40;3.00;;;;;;;;;;5011921;28;20028;-72
2021/07/27 10:18:13;;;;;;;4.35;3.13;;;;;;;;;;4993229;28;20549;-71
2021/07/27 10:20:39;;;;;;;5.53;3.00;;;;;;;;;;4997189;28;20049;-72
2021/07/27 10:23:15;;;;;;;4.87;3.20;;;;;;;;;;5015508;28;20041;-72
2021/07/27 10:25:51;;;;;;;6.83;3.37;;;;;;;;;;5017485;28;20076;-70
2021/07/27 10:28:17;;;;;;;;;;;;;;;;;;5017545;28;20827;-70
2021/07/27 10:30:42;;;;;;;5.90;3.10;;;;;;;;;;4998486;28;19913;-72
2021/07/27 10:33:07;;;;;;;5.07;3.00;;;;;;;;;;4992448;28;20030;-70
2021/07/27 10:35:33;;;;;;;4.83;3.03;;;;;;;;;;5008818;28;20490;-71
2021/07/27 10:38:11;;;;;;;4.40;2.50;;;;;;;;;;5009221;28;20061;-71
2021/07/27 10:40:37;;;;;;;5.72;3.00;;;;;;;;;;4998199;28;20108;-70
2021/07/27 10:43:07;;;;;;;5.33;2.97;;;;;;;;;;5008032;28;20049;-71
2021/07/27 10:45:35;;;;;;;4.97;2.88;;;;;;;;;;5018126;28;20044;-71
2021/07/27 10:48:03;;;;;;;3.60;2.53;;;;;;;;;;5015089;28;20026;-71
2021/07/27 10:50:32;;;;;;;5.43;3.10;;;;;;;;;;4999074;28;20057;-71
2021/07/27 10:53:13;;;;;;;4.72;2.90;;;;;;;;;;5009976;28;20033;-71
2021/07/27 10:55:41;;;;;;;6.15;3.00;;;;;;;;;;5013649;28;20026;-72
2021/07/27 10:58:15;;;;;;;5.30;3.08;;;;;;;;;;4992776;28;20040;-71
2021/07/27 11:00:40;;;;;;;4.38;3.10;;;;;;;;;;5015608;28;20040;-71
2021/07/27 11:03:05;;;;;;;4.30;2.70;;;;;;;;;;5016514;28;20021;-70
2021/07/27 11:05:34;;;;;;;3.70;2.40;;;;;;;;;;5012657;28;20033;-70
2021/07/27 11:08:02;;;;;;;5.30;3.03;;;;;;;;;;4978668;28;20029;-70
2021/07/27 11:10:29;;;;;;;8.37;3.07;;;;;;;;;;5016988;28;20366;-70
2021/07/27 11:12:56;;;;;;;4.97;2.95;;;;;;;;;;5012900;28;20045;-71
2021/07/27 11:15:25;;;;;;;6.65;3.20;;;;;;;;;;4979901;28;20021;-70
2021/07/27 11:18:01;;;;;;;3.60;2.60;;;;;;;;;;5013459;28;20486;-71
2021/07/27 11:20:26;;;;;;;5.03;3.20;;;;;;;;;;5012648;28;20352;-70
2021/07/27 11:22:52;;;;;;;4.80;3.40;;;;;;;;;;5015786;28;20428;-71
2021/07/27 11:25:22;;;;;;;4.93;3.30;;;;;;;;;;4995800;28;20596;-70
2021/07/27 11:27:48;;;;;;;6.05;3.28;;;;;;;;;;5010880;28;20132;-70
2021/07/27 11:30:14;;;;;;;4.00;2.80;;;;;;;;;;5008453;28;20144;-70
2021/07/27 11:32:40;;;;;;;5.20;3.10;;;;;;;;;;4997651;28;20077;-69
2021/07/27 11:35:08;;;;;;;5.05;3.25;;;;;;;;;;4999004;28;20503;-70
2021/07/27 11:37:36;;;;;;;5.00;3.05;;;;;;;;;;5007929;28;20084;-71
2021/07/27 11:40:02;;;;;;;4.38;2.65;;;;;;;;;;5009149;28;20041;-70
2021/07/27 11:42:31;;;;;;;5.17;3.03;;;;;;;;;;5011756;28;20052;-70
2021/07/27 11:44:59;;;;;;;4.40;3.00;;;;;;;;;;5004873;28;20037;-70
2021/07/27 11:47:25;;;;;;;3.78;2.60;;;;;;;;;;5016728;28;20234;-70
2021/07/27 11:49:56;;;;;;;4.70;2.90;;;;;;;;;;4981345;28;20299;-70
2021/07/27 11:52:28;;;;;;;4.78;2.70;;;;;;;;;;4996534;28;20022;-70
2021/07/27 11:55:03;;;;;;;4.03;2.38;;;;;;;;;;5007318;28;20021;-70
2021/07/27 11:57:29;;;;;;;4.40;2.47;;;;;;;;;;4973768;28;20379;-70
2021/07/27 12:00:10;;;;;;;5.33;2.60;;;;;;;;;;5007867;28;20450;-70
2021/07/27 12:02:35;;;;;;;4.20;2.90;;;;;;;;;;4990167;28;20065;-71
2021/07/27 12:05:01;;;;;;;4.87;2.60;;;;;;;;;;5009711;28;20056;-71
2021/07/27 12:07:26;;;;;;;4.95;2.72;;;;;;;;;;5012204;28;20050;-71
2021/07/27 12:09:52;;;;;;;4.33;2.80;;;;;;;;;;5020023;28;20030;-70
2021/07/27 12:12:17;;;;;;;3.77;2.47;;;;;;;;;;5012356;28;20111;-71
2021/07/27 12:14:44;;;;;;;5.33;2.80;;;;;;;;;;5006327;28;20082;-70
2021/07/27 12:17:10;;;;;;;5.95;2.95;;;;;;;;;;4997949;28;20057;-70
2021/07/27 12:19:35;;;;;;;3.60;2.30;;;;;;;;;;4999169;28;20465;-71
2021/07/27 12:22:00;;;;;;;5.40;2.90;;;;;;;;;;4981367;28;20470;-71
2021/07/27 12:24:26;;;;;;;3.63;2.33;;;;;;;;;;5000149;28;20045;-70
2021/07/27 12:26:52;;;;;;;4.68;2.80;;;;;;;;;;5015770;28;20052;-70
2021/07/27 12:29:17;;;;;;;4.73;2.77;;;;;;;;;;4994478;28;20037;-70
2021/07/27 12:31:43;;;;;;;6.47;3.00;;;;;;;;;;5009107;28;20422;-71
2021/07/27 12:34:10;;;;;;;4.60;2.90;;;;;;;;;;5007958;28;20034;-72
2021/07/27 12:36:38;;;;;;;5.00;2.70;;;;;;;;;;4977636;28;20738;-71
2021/07/27 12:39:03;;;;;;;5.05;2.90;;;;;;;;;;5010943;28;20025;-69
2021/07/27 12:41:28;;;;;;;4.13;2.40;;;;;;;;;;5018307;28;20034;-70
2021/07/27 12:43:54;;;;;;;5.00;2.93;;;;;;;;;;5012938;28;20038;-72
2021/07/27 12:46:22;;;;;;;3.17;2.20;;;;;;;;;;5005806;28;20565;-70
2021/07/27 12:48:47;;;;;;;3.78;2.70;;;;;;;;;;5024715;28;20098;-71
2021/07/27 12:51:19;;;;;;;3.70;2.60;;;;;;;;;;4995686;28;20108;-70
2021/07/27 12:53:45;;;;;;;5.07;2.80;;;;;;;;;;4994751;28;20040;-70
2021/07/27 12:56:14;;;;;;;4.60;2.80;;;;;;;;;;5015678;28;20412;-70
2021/07/27 12:58:39;;;;;;;5.20;2.72;;;;;;;;;;4998364;28;20271;-70
2021/07/27 13:01:05;;;;;;;4.97;3.10;;;;;;;;;;5013028;28;20025;-70
2021/07/27 13:03:30;;;;;;;5.57;2.85;;;;;;;;;;4992835;28;20088;-71
2021/07/27 13:05:55;;;;;;;4.03;2.80;;;;;;;;;;5015601;28;20033;-71
2021/07/27 13:08:21;;;;;;;5.27;3.00;;;;;;;;;;4993725;28;20026;-71
2021/07/27 13:10:49;;;;;;;3.90;2.20;;;;;;;;;;5014293;28;20087;-69
2021/07/27 13:13:15;;;;;;;3.60;2.70;;;;;;;;;;4986726;28;20479;-70
2021/07/27 13:15:40;;;;;;;;;;;;;;;;;;4987517;28;20042;-71
2021/07/27 13:18:06;;;;;;;4.10;2.67;;;;;;;;;;4980110;28;20308;-71
2021/07/27 13:20:33;;;;;;;5.05;2.85;;;;;;;;;;4974184;28;20045;-71
2021/07/27 13:22:59;;;;;;;;;;;;;;;;;;5002643;28;20037;-71
2021/07/27 13:25:24;;;;;;;5.03;3.07;;;;;;;;;;5009109;28;19920;-70
2021/07/27 13:27:49;;;;;;;;;;;;;;;;;;5008107;28;20283;-71
2021/07/27 13:30:15;;;;;;;4.33;2.77;;;;;;;;;;5011901;28;19916;-71
2021/07/27 13:32:40;;;;;;;3.90;2.80;;;;;;;;;;4993042;28;20129;-71
2021/07/27 13:35:06;;;;;;;4.80;2.80;;;;;;;;;;4992243;28;20041;-71
2021/07/27 13:37:31;;;;;;;4.47;3.00;;;;;;;;;;5011398;28;20061;-70
2021/07/27 13:39:57;;;;;;;4.47;3.17;;;;;;;;;;5007914;28;20878;-70
2021/07/27 13:42:24;;;;;;;3.83;2.53;;;;;;;;;;5009728;28;20283;-71
2021/07/27 13:44:52;;;;;;;4.65;3.00;;;;;;;;;;5002771;28;20387;-71
2021/07/27 13:47:18;;;;;;;6.63;3.10;;;;;;;;;;5001279;28;20435;-71
2021/07/27 13:49:43;;;;;;;4.13;2.77;;;;;;;;;;5003075;28;20826;-71
2021/07/27 13:52:10;;;;;;;4.63;2.90;;;;;;;;;;5020848;28;20034;-71
2021/07/27 13:54:37;;;;;;;4.60;3.10;;;;;;;;;;5015358;28;20018;-71
2021/07/27 13:57:02;;;;;;;;;;;;;;;;;;4994323;28;20475;-70
2021/07/27 13:59:27;;;;;;;;;;;;;;;;;;5001523;28;19905;-70
2021/07/27 14:01:52;;;;;;;4.47;2.73;;;;;;;;;;4983622;28;20007;-70
2021/07/27 14:04:18;;;;;;;5.40;3.33;;;;;;;;;;5011517;28;20446;-70
2021/07/27 14:06:46;;;;;;;5.43;3.20;;;;;;;;;;4996735;28;20470;-69
2021/07/27 14:09:12;;;;;;;4.20;2.70;;;;;;;;;;4972565;28;20375;-70
2021/07/27 14:11:37;;;;;;;5.30;3.20;;;;;;;;;;5000741;28;20490;-69
2021/07/27 14:14:03;;;;;;;4.83;2.90;;;;;;;;;;5008712;28;20620;-70
2021/07/27 14:16:28;;;;;;;4.67;2.97;;;;;;;;;;4989645;28;20056;-70
2021/07/27 14:18:54;;;;;;;5.50;3.20;;;;;;;;;;5012925;28;20425;-70
2021/07/27 14:21:19;;;;;;;4.50;2.70;;;;;;;;;;4996936;28;20429;-71
2021/07/27 14:23:44;;;;;;;7.60;3.17;;;;;;;;;;5021287;28;20037;-70
2021/07/27 14:26:10;;;;;;;4.77;3.10;;;;;;;;;;5003238;28;20116;-70
2021/07/27 14:28:35;;;;;;;5.68;2.90;;;;;;;;;;5007348;28;20370;-71
2021/07/27 14:31:01;;;;;;;4.17;2.70;;;;;;;;;;5010575;28;20454;-71
2021/07/27 14:33:26;;;;;;;3.80;2.90;;;;;;;;;;4994956;28;20040;-70
2021/07/27 14:35:51;;;;;;;6.47;3.10;;;;;;;;;;4998957;28;20068;-73
2021/07/27 14:38:17;;;;;;;6.93;3.10;;;;;;;;;;5001480;28;20474;-73
2021/07/27 14:40:42;;;;;;;5.63;3.20;;;;;;;;;;5003483;28;20030;-72
2021/07/27 14:43:08;;;;;;;4.10;2.97;;;;;;;;;;5015613;28;20394;-72
2021/07/27 14:45:33;;;;;;;6.63;3.00;;;;;;;;;;5016758;28;20034;-72
2021/07/27 14:47:59;;;;;;;7.60;2.90;;;;;;;;;;4997867;28;20037;-72
2021/07/27 14:50:25;;;;;;;3.92;2.90;;;;;;;;;;5015362;28;20026;-73
2021/07/27 14:52:51;;;;;;;;;;;;;;;;;;5024569;28;20104;-72
2021/07/27 14:55:16;;;;;;;4.23;2.70;;;;;;;;;;4996367;28;20007;-72
2021/07/27 14:57:42;;;;;;;4.65;2.90;;;;;;;;;;5015510;28;20264;-72
2021/07/27 15:00:07;;;;;;;72.18;25.00;;;;;;;;;;4995960;28;20115;-73
2021/07/27 15:02:35;;;;;;;5.97;3.20;;;;;;;;;;5008624;28;20060;-71